sensor_id;sensor_type;location;lat;lon;timestamp;pressure;altitude;pressure_sealevel;temperature;humidity
8627;BME280;4351;51.422;6.794;2023-01-28T00:01:45;101474.25;;;3.48;100.00
8627;BME280;4351;51.422;6.794;2023-01-28T00:04:13;101467.91;;;3.54;100.00
8627;BME280;4351;51.422;6.794;2023-01-28T00:06:43;101473.31;;;3.49;100.00
8627;BME280;4351;51.422;6.794;2023-01-28T00:09:11;101474.28;;;3.45;100.00
8627;BME280;4351;51.422;6.794;2023-01-28T00:11:39;101471.50;;;3.51;100.00
8627;BME280;4351;51.422;6.794;2023-01-28T00:14:09;101486.13;;;3.30;100.00
8627;BME280;4351;51.422;6.794;2023-01-28T00:16:37;101482.47;;;3.37;100.00
8627;BME280;4351;51.422;6.794;2023-01-28T00:19:05;101477.16;;;3.36;100.00
8627;BME280;4351;51.422;6.794;2023-01-28T00:21:33;101466.34;;;3.43;100.00
8627;BME280;4351;51.422;6.794;2023-01-28T00:24:03;101471.72;;;3.42;100.00
8627;BME280;4351;51.422;6.794;2023-01-28T00:26:32;101481.72;;;3.29;100.00
8627;BME280;4351;51.422;6.794;2023-01-28T00:29:01;101493.53;;;3.14;100.00
8627;BME280;4351;51.422;6.794;2023-01-28T00:31:29;101488.06;;;3.21;100.00
8627;BME280;4351;51.422;6.794;2023-01-28T00:33:59;101484.41;;;3.27;100.00
8627;BME280;4351;51.422;6.794;2023-01-28T00:36:27;101474.25;;;3.48;100.00
8627;BME280;4351;51.422;6.794;2023-01-28T00:38:56;101477.03;;;3.42;100.00
8627;BME280;4351;51.422;6.794;2023-01-28T00:41:28;101482.38;;;3.42;100.00
8627;BME280;4351;51.422;6.794;2023-01-28T00:43:57;101487.72;;;3.42;100.00
8627;BME280;4351;51.422;6.794;2023-01-28T00:46:25;101486.75;;;3.44;100.00
8627;BME280;4351;51.422;6.794;2023-01-28T00:48:54;101492.97;;;3.45;100.00
8627;BME280;4351;51.422;6.794;2023-01-28T00:51:22;101498.78;;;3.18;100.00
8627;BME280;4351;51.422;6.794;2023-01-28T00:53:50;101500.59;;;3.18;100.00
8627;BME280;4351;51.422;6.794;2023-01-28T00:56:19;101505.03;;;3.17;100.00
8627;BME280;4351;51.422;6.794;2023-01-28T00:58:49;101508.72;;;3.08;100.00
8627;BME280;4351;51.422;6.794;2023-01-28T01:01:20;101502.47;;;3.09;100.00
8627;BME280;4351;51.422;6.794;2023-01-28T01:03:48;101517.00;;;2.91;100.00
8627;BME280;4351;51.422;6.794;2023-01-28T01:06:24;101515.97;;;2.98;100.00
8627;BME280;4351;51.422;6.794;2023-01-28T01:08:52;101513.31;;;3.00;100.00
8627;BME280;4351;51.422;6.794;2023-01-28T01:11:20;101517.94;;;2.89;100.00
8627;BME280;4351;51.422;6.794;2023-01-28T01:13:54;101513.50;;;2.87;100.00
8627;BME280;4351;51.422;6.794;2023-01-28T01:16:24;101502.66;;;3.00;100.00
8627;BME280;4351;51.422;6.794;2023-01-28T01:18:53;101494.63;;;3.02;100.00
8627;BME280;4351;51.422;6.794;2023-01-28T01:21:23;101496.44;;;2.99;100.00
8627;BME280;4351;51.422;6.794;2023-01-28T01:23:52;101498.25;;;2.97;100.00
8627;BME280;4351;51.422;6.794;2023-01-28T01:26:21;101486.41;;;3.16;100.00
8627;BME280;4351;51.422;6.794;2023-01-28T01:28:49;101493.44;;;3.20;100.00
8627;BME280;4351;51.422;6.794;2023-01-28T01:31:20;101489.06;;;3.14;100.00
8627;BME280;4351;51.422;6.794;2023-01-28T01:33:49;101500.63;;;3.15;100.00
8627;BME280;4351;51.422;6.794;2023-01-28T01:36:18;101496.19;;;3.15;100.00
8627;BME280;4351;51.422;6.794;2023-01-28T01:38:51;101497.88;;;3.19;100.00
8627;BME280;4351;51.422;6.794;2023-01-28T01:41:26;101498.78;;;3.20;100.00
8627;BME280;4351;51.422;6.794;2023-01-28T01:43:57;101502.06;;;3.35;100.00
8627;BME280;4351;51.422;6.794;2023-01-28T01:46:32;101509.53;;;3.14;100.00
8627;BME280;4351;51.422;6.794;2023-01-28T01:49:07;101507.44;;;3.31;100.00
8627;BME280;4351;51.422;6.794;2023-01-28T01:51:40;101511.88;;;3.32;100.00
8627;BME280;4351;51.422;6.794;2023-01-28T01:54:09;101519.81;;;3.37;100.00
8627;BME280;4351;51.422;6.794;2023-01-28T01:56:40;101530.56;;;3.32;100.00
8627;BME280;4351;51.422;6.794;2023-01-28T01:59:11;101544.03;;;3.23;100.00
8627;BME280;4351;51.422;6.794;2023-01-28T02:01:43;101548.47;;;3.24;100.00
8627;BME280;4351;51.422;6.794;2023-01-28T02:04:16;101545.63;;;3.35;100.00
8627;BME280;4351;51.422;6.794;2023-01-28T02:06:46;101556.22;;;3.40;100.00
8627;BME280;4351;51.422;6.794;2023-01-28T02:09:29;101564.53;;;3.21;100.00
8627;BME280;4351;51.422;6.794;2023-01-28T02:11:59;101578.19;;;2.99;100.00
8627;BME280;4351;51.422;6.794;2023-01-28T02:14:31;101566.53;;;3.06;100.00
8627;BME280;4351;51.422;6.794;2023-01-28T02:17:03;101556.25;;;3.37;100.00
8627;BME280;4351;51.422;6.794;2023-01-28T02:19:36;101572.50;;;3.22;100.00
8627;BME280;4351;51.422;6.794;2023-01-28T02:22:17;101562.34;;;3.45;100.00
8627;BME280;4351;51.422;6.794;2023-01-28T02:25:15;101585.16;;;3.08;100.00
8627;BME280;4351;51.422;6.794;2023-01-28T02:28:08;101586.88;;;3.12;100.00
8627;BME280;4351;51.422;6.794;2023-01-28T02:30:41;101604.09;;;2.91;100.00
8627;BME280;4351;51.422;6.794;2023-01-28T02:33:17;101595.97;;;2.98;100.00
8627;BME280;4351;51.422;6.794;2023-01-28T02:35:48;101589.59;;;3.10;100.00
8627;BME280;4351;51.422;6.794;2023-01-28T02:38:22;101594.72;;;3.23;100.00
8627;BME280;4351;51.422;6.794;2023-01-28T02:40:56;101604.56;;;3.19;100.00
8627;BME280;4351;51.422;6.794;2023-01-28T02:43:33;101620.59;;;3.16;100.00
8627;BME280;4351;51.422;6.794;2023-01-28T02:46:11;101631.53;;;2.97;100.00
8627;BME280;4351;51.422;6.794;2023-01-28T02:48:58;101630.78;;;2.89;100.00
8627;BME280;4351;51.422;6.794;2023-01-28T02:51:35;101644.00;;;2.97;100.00
8627;BME280;4351;51.422;6.794;2023-01-28T02:54:10;101640.22;;;3.14;100.00
8627;BME280;4351;51.422;6.794;2023-01-28T02:56:44;101648.03;;;3.26;100.00
8627;BME280;4351;51.422;6.794;2023-01-28T02:59:21;101679.00;;;2.72;100.00
8627;BME280;4351;51.422;6.794;2023-01-28T03:02:13;101669.13;;;2.77;100.00
8627;BME280;4351;51.422;6.794;2023-01-28T03:04:48;101668.47;;;2.58;100.00
8627;BME280;4351;51.422;6.794;2023-01-28T03:07:22;101664.72;;;2.76;100.00
8627;BME280;4351;51.422;6.794;2023-01-28T03:09:55;101661.97;;;2.82;100.00
8627;BME280;4351;51.422;6.794;2023-01-28T03:12:26;101667.53;;;2.62;100.00
8627;BME280;4351;51.422;6.794;2023-01-28T03:15:16;101665.78;;;2.59;100.00
8627;BME280;4351;51.422;6.794;2023-01-28T03:18:06;101655.97;;;2.64;100.00
8627;BME280;4351;51.422;6.794;2023-01-28T03:21:01;101647.06;;;2.66;100.00
8627;BME280;4351;51.422;6.794;2023-01-28T03:23:53;101640.63;;;2.84;100.00
8627;BME280;4351;51.422;6.794;2023-01-28T03:26:46;101647.00;;;2.70;100.00
8627;BME280;4351;51.422;6.794;2023-01-28T03:29:32;101647.06;;;2.67;100.00
8627;BME280;4351;51.422;6.794;2023-01-28T03:32:22;101642.56;;;2.71;100.00
8627;BME280;4351;51.422;6.794;2023-01-28T03:35:08;101631.97;;;2.68;100.00
8627;BME280;4351;51.422;6.794;2023-01-28T03:37:56;101640.97;;;2.59;100.00
8627;BME280;4351;51.422;6.794;2023-01-28T03:40:27;101638.25;;;2.60;100.00
8627;BME280;4351;51.422;6.794;2023-01-28T03:42:55;101641.00;;;2.54;100.00
8627;BME280;4351;51.422;6.794;2023-01-28T03:45:31;101638.00;;;2.79;100.00
8627;BME280;4351;51.422;6.794;2023-01-28T03:48:05;101636.25;;;2.78;100.00
8627;BME280;4351;51.422;6.794;2023-01-28T03:50:34;101642.66;;;2.61;100.00
8627;BME280;4351;51.422;6.794;2023-01-28T03:53:02;101636.09;;;2.91;100.00
8627;BME280;4351;51.422;6.794;2023-01-28T03:55:51;101661.94;;;2.84;100.00
8627;BME280;4351;51.422;6.794;2023-01-28T03:58:20;101668.50;;;2.56;100.00
8627;BME280;4351;51.422;6.794;2023-01-28T04:00:49;101661.84;;;2.92;100.00
8627;BME280;4351;51.422;6.794;2023-01-28T04:03:20;101664.81;;;2.70;100.00
8627;BME280;4351;51.422;6.794;2023-01-28T04:06:03;101662.81;;;2.84;100.00
8627;BME280;4351;51.422;6.794;2023-01-28T04:08:49;101679.75;;;2.79;100.00
8627;BME280;4351;51.422;6.794;2023-01-28T04:11:32;101680.81;;;2.67;100.00
8627;BME280;4351;51.422;6.794;2023-01-28T04:14:02;101679.09;;;2.62;100.00
8627;BME280;4351;51.422;6.794;2023-01-28T04:16:48;101686.03;;;2.76;100.00
8627;BME280;4351;51.422;6.794;2023-01-28T04:19:19;101681.41;;;2.91;100.00
8627;BME280;4351;51.422;6.794;2023-01-28T04:21:48;101699.53;;;2.60;100.00
8627;BME280;4351;51.422;6.794;2023-01-28T04:24:20;101706.66;;;2.60;100.00
8627;BME280;4351;51.422;6.794;2023-01-28T04:26:48;101702.22;;;2.60;100.00
8627;BME280;4351;51.422;6.794;2023-01-28T04:29:17;101715.44;;;2.68;100.00
8627;BME280;4351;51.422;6.794;2023-01-28T04:31:46;101729.78;;;2.56;100.00
8627;BME280;4351;51.422;6.794;2023-01-28T04:34:41;101719.91;;;2.66;100.00
8627;BME280;4351;51.422;6.794;2023-01-28T04:37:22;101733.38;;;2.50;100.00
8627;BME280;4351;51.422;6.794;2023-01-28T04:40:23;101741.31;;;2.58;100.00
8627;BME280;4351;51.422;6.794;2023-01-28T04:42:57;101735.91;;;2.64;100.00
8627;BME280;4351;51.422;6.794;2023-01-28T04:45:52;101743.06;;;2.59;100.00
8627;BME280;4351;51.422;6.794;2023-01-28T04:48:29;101718.72;;;2.91;100.00
8627;BME280;4351;51.422;6.794;2023-01-28T04:51:17;101740.44;;;2.55;100.00
8627;BME280;4351;51.422;6.794;2023-01-28T04:54:03;101732.47;;;2.56;100.00
8627;BME280;4351;51.422;6.794;2023-01-28T04:56:33;101722.59;;;2.64;100.00
8627;BME280;4351;51.422;6.794;2023-01-28T04:59:02;101726.19;;;2.60;100.00
8627;BME280;4351;51.422;6.794;2023-01-28T05:01:32;101729.75;;;2.59;100.00
8627;BME280;4351;51.422;6.794;2023-01-28T05:04:01;101724.28;;;2.73;100.00
8627;BME280;4351;51.422;6.794;2023-01-28T05:06:36;101725.22;;;2.69;100.00
8627;BME280;4351;51.422;6.794;2023-01-28T05:09:08;101729.75;;;2.61;100.00
8627;BME280;4351;51.422;6.794;2023-01-28T05:11:36;101733.34;;;2.57;100.00
8627;BME280;4351;51.422;6.794;2023-01-28T05:14:06;101732.38;;;2.62;100.00
8627;BME280;4351;51.422;6.794;2023-01-28T05:16:48;101741.25;;;2.61;100.00
8627;BME280;4351;51.422;6.794;2023-01-28T05:19:18;101738.69;;;2.53;100.00
8627;BME280;4351;51.422;6.794;2023-01-28T05:21:47;101735.00;;;2.66;100.00
8627;BME280;4351;51.422;6.794;2023-01-28T05:24:37;101736.06;;;2.49;100.00
8627;BME280;4351;51.422;6.794;2023-01-28T05:27:05;101740.44;;;2.56;100.00
8627;BME280;4351;51.422;6.794;2023-01-28T05:29:34;101742.28;;;2.49;100.00
8627;BME280;4351;51.422;6.794;2023-01-28T05:32:03;101738.78;;;2.46;100.00
8627;BME280;4351;51.422;6.794;2023-01-28T05:34:31;101743.84;;;2.71;100.00
8627;BME280;4351;51.422;6.794;2023-01-28T05:37:06;101760.91;;;2.54;100.00
8627;BME280;4351;51.422;6.794;2023-01-28T05:39:36;101775.19;;;2.44;100.00
8627;BME280;4351;51.422;6.794;2023-01-28T05:42:04;101768.13;;;2.43;100.00
8627;BME280;4351;51.422;6.794;2023-01-28T05:44:35;101786.13;;;2.14;100.00
8627;BME280;4351;51.422;6.794;2023-01-28T05:47:42;101768.19;;;2.36;100.00
8627;BME280;4351;51.422;6.794;2023-01-28T05:50:31;101779.59;;;2.46;100.00
8627;BME280;4351;51.422;6.794;2023-01-28T05:53:11;101804.50;;;2.44;100.00
8627;BME280;4351;51.422;6.794;2023-01-28T05:55:42;101805.53;;;2.30;100.00
8627;BME280;4351;51.422;6.794;2023-01-28T05:58:10;101799.13;;;2.48;100.00
8627;BME280;4351;51.422;6.794;2023-01-28T06:00:38;101804.44;;;2.51;100.00
8627;BME280;4351;51.422;6.794;2023-01-28T06:03:06;101809.84;;;2.45;100.00
8627;BME280;4351;51.422;6.794;2023-01-28T06:05:35;101807.16;;;2.44;100.00
8627;BME280;4351;51.422;6.794;2023-01-28T06:08:04;101815.25;;;2.34;100.00
8627;BME280;4351;51.422;6.794;2023-01-28T06:10:33;101815.25;;;2.33;100.00
8627;BME280;4351;51.422;6.794;2023-01-28T06:13:03;101798.31;;;2.40;100.00
8627;BME280;4351;51.422;6.794;2023-01-28T06:15:42;101806.34;;;2.37;100.00
8627;BME280;4351;51.422;6.794;2023-01-28T06:18:22;101809.06;;;2.32;100.00
8627;BME280;4351;51.422;6.794;2023-01-28T06:20:50;101786.69;;;2.52;100.00
8627;BME280;4351;51.422;6.794;2023-01-28T06:23:18;101770.63;;;2.58;100.00
8627;BME280;4351;51.422;6.794;2023-01-28T06:25:52;101738.81;;;2.43;100.00
8627;BME280;4351;51.422;6.794;2023-01-28T06:28:20;101703.28;;;2.42;100.00
8627;BME280;4351;51.422;6.794;2023-01-28T06:30:49;101678.34;;;2.49;100.00
8627;BME280;4351;51.422;6.794;2023-01-28T06:33:19;101673.09;;;2.41;100.00
8627;BME280;4351;51.422;6.794;2023-01-28T06:35:47;101664.38;;;2.27;100.00
8627;BME280;4351;51.422;6.794;2023-01-28T06:38:15;101642.19;;;2.28;100.00
8627;BME280;4351;51.422;6.794;2023-01-28T06:40:43;101632.34;;;2.35;100.00
8627;BME280;4351;51.422;6.794;2023-01-28T06:43:13;101634.13;;;2.33;100.00
8627;BME280;4351;51.422;6.794;2023-01-28T06:45:41;101616.44;;;2.30;100.00
8627;BME280;4351;51.422;6.794;2023-01-28T06:48:09;101601.22;;;2.40;100.00
8627;BME280;4351;51.422;6.794;2023-01-28T06:50:37;101604.69;;;2.44;100.00
8627;BME280;4351;51.422;6.794;2023-01-28T06:53:05;101597.75;;;2.32;100.00
8627;BME280;4351;51.422;6.794;2023-01-28T06:55:33;101593.44;;;2.21;100.00
8627;BME280;4351;51.422;6.794;2023-01-28T06:58:01;101592.59;;;2.19;100.00
8627;BME280;4351;51.422;6.794;2023-01-28T07:00:31;101588.19;;;2.16;100.00
8627;BME280;4351;51.422;6.794;2023-01-28T07:02:59;101591.53;;;2.34;100.00
8627;BME280;4351;51.422;6.794;2023-01-28T07:05:27;101577.25;;;2.38;100.00
8627;BME280;4351;51.422;6.794;2023-01-28T07:07:55;101583.41;;;2.42;100.00
8627;BME280;4351;51.422;6.794;2023-01-28T07:10:23;101596.97;;;2.23;100.00
8627;BME280;4351;51.422;6.794;2023-01-28T07:12:51;101607.56;;;2.29;100.00
8627;BME280;4351;51.422;6.794;2023-01-28T07:15:19;101613.78;;;2.27;100.00
8627;BME280;4351;51.422;6.794;2023-01-28T07:17:49;101606.38;;;2.52;100.00
8627;BME280;4351;51.422;6.794;2023-01-28T07:20:17;101614.63;;;2.30;100.00
8627;BME280;4351;51.422;6.794;2023-01-28T07:22:45;101618.28;;;2.23;100.00
8627;BME280;4351;51.422;6.794;2023-01-28T07:25:14;101611.31;;;2.13;100.00
8627;BME280;4351;51.422;6.794;2023-01-28T07:27:49;101604.97;;;2.22;100.00
8627;BME280;4351;51.422;6.794;2023-01-28T07:30:19;101611.09;;;2.28;100.00
8627;BME280;4351;51.422;6.794;2023-01-28T07:32:53;101626.41;;;2.09;100.00
8627;BME280;4351;51.422;6.794;2023-01-28T07:35:22;101625.34;;;2.24;100.00
8627;BME280;4351;51.422;6.794;2023-01-28T07:37:51;101627.16;;;2.22;100.00
8627;BME280;4351;51.422;6.794;2023-01-28T07:40:20;101625.47;;;2.13;100.00
8627;BME280;4351;51.422;6.794;2023-01-28T07:42:48;101622.94;;;2.01;100.00
8627;BME280;4351;51.422;6.794;2023-01-28T07:45:20;101623.75;;;2.09;100.00
8627;BME280;4351;51.422;6.794;2023-01-28T07:47:54;101628.19;;;2.07;100.00
8627;BME280;4351;51.422;6.794;2023-01-28T07:50:22;101636.25;;;2.04;100.00
8627;BME280;4351;51.422;6.794;2023-01-28T07:52:51;101624.53;;;2.19;100.00
8627;BME280;4351;51.422;6.794;2023-01-28T07:55:19;101634.53;;;1.93;100.00
8627;BME280;4351;51.422;6.794;2023-01-28T07:57:48;101627.19;;;2.19;100.00
8627;BME280;4351;51.422;6.794;2023-01-28T08:00:18;101636.91;;;2.22;100.00
8627;BME280;4351;51.422;6.794;2023-01-28T08:02:46;101642.22;;;2.25;100.00
8627;BME280;4351;51.422;6.794;2023-01-28T08:05:18;101639.44;;;2.36;100.00
8627;BME280;4351;51.422;6.794;2023-01-28T08:07:47;101656.38;;;2.30;100.00
8627;BME280;4351;51.422;6.794;2023-01-28T08:10:17;101664.38;;;2.28;100.00
8627;BME280;4351;51.422;6.794;2023-01-28T08:12:52;101670.47;;;2.38;100.00
8627;BME280;4351;51.422;6.794;2023-01-28T08:15:21;101661.66;;;2.33;100.00
8627;BME280;4351;51.422;6.794;2023-01-28T08:17:49;101673.22;;;2.30;100.00
8627;BME280;4351;51.422;6.794;2023-01-28T08:20:19;101674.94;;;2.36;100.00
8627;BME280;4351;51.422;6.794;2023-01-28T08:22:47;101676.00;;;2.20;100.00
8627;BME280;4351;51.422;6.794;2023-01-28T08:25:15;101679.41;;;2.34;100.00
8627;BME280;4351;51.422;6.794;2023-01-28T08:27:43;101671.47;;;2.29;100.00
8627;BME280;4351;51.422;6.794;2023-01-28T08:30:11;101682.19;;;2.23;100.00
8627;BME280;4351;51.422;6.794;2023-01-28T08:32:40;101674.81;;;2.49;100.00
8627;BME280;4351;51.422;6.794;2023-01-28T08:35:08;101679.28;;;2.44;100.00
8627;BME280;4351;51.422;6.794;2023-01-28T08:37:37;101686.38;;;2.48;100.00
8627;BME280;4351;51.422;6.794;2023-01-28T08:40:06;101692.59;;;2.44;100.00
8627;BME280;4351;51.422;6.794;2023-01-28T08:42:35;101710.09;;;2.70;100.00
8627;BME280;4351;51.422;6.794;2023-01-28T08:45:03;101723.28;;;2.82;100.00
8627;BME280;4351;51.422;6.794;2023-01-28T08:47:32;101753.94;;;2.39;100.00
8627;BME280;4351;51.422;6.794;2023-01-28T08:50:00;101745.72;;;2.59;100.00
8627;BME280;4351;51.422;6.794;2023-01-28T08:52:28;101752.88;;;2.56;100.00
8627;BME280;4351;51.422;6.794;2023-01-28T08:54:57;101771.34;;;2.73;100.00
8627;BME280;4351;51.422;6.794;2023-01-28T08:57:25;101774.06;;;2.68;100.00
8627;BME280;4351;51.422;6.794;2023-01-28T08:59:53;101789.31;;;2.57;100.00
8627;BME280;4351;51.422;6.794;2023-01-28T09:02:21;101798.28;;;2.45;100.00
8627;BME280;4351;51.422;6.794;2023-01-28T09:04:57;101787.44;;;2.63;100.00
8627;BME280;4351;51.422;6.794;2023-01-28T09:07:26;101808.19;;;2.27;100.00
8627;BME280;4351;51.422;6.794;2023-01-28T09:09:54;101800.19;;;2.32;100.00
8627;BME280;4351;51.422;6.794;2023-01-28T09:12:23;101816.28;;;2.16;100.00
8627;BME280;4351;51.422;6.794;2023-01-28T09:14:51;101813.63;;;2.16;100.00
8627;BME280;4351;51.422;6.794;2023-01-28T09:17:20;101810.84;;;2.30;100.00
8627;BME280;4351;51.422;6.794;2023-01-28T09:19:48;101804.66;;;2.26;100.00
8627;BME280;4351;51.422;6.794;2023-01-28T09:22:16;101800.16;;;2.36;100.00
8627;BME280;4351;51.422;6.794;2023-01-28T09:24:44;101818.03;;;2.20;100.00
8627;BME280;4351;51.422;6.794;2023-01-28T09:27:12;101817.00;;;2.38;100.00
8627;BME280;4351;51.422;6.794;2023-01-28T09:29:42;101826.72;;;2.43;100.00
8627;BME280;4351;51.422;6.794;2023-01-28T09:32:10;101826.84;;;2.30;100.00
8627;BME280;4351;51.422;6.794;2023-01-28T09:34:38;101829.41;;;2.38;100.00
8627;BME280;4351;51.422;6.794;2023-01-28T09:37:06;101826.72;;;2.39;100.00
8627;BME280;4351;51.422;6.794;2023-01-28T09:39:34;101807.25;;;2.34;100.00
8627;BME280;4351;51.422;6.794;2023-01-28T09:42:20;101822.19;;;2.51;100.00
8627;BME280;4351;51.422;6.794;2023-01-28T09:45:01;101846.06;;;2.63;100.00
8627;BME280;4351;51.422;6.794;2023-01-28T09:47:33;101848.78;;;2.60;100.00
8627;BME280;4351;51.422;6.794;2023-01-28T09:50:07;101873.75;;;2.44;100.00
8627;BME280;4351;51.422;6.794;2023-01-28T09:52:39;101876.44;;;2.45;100.00
8627;BME280;4351;51.422;6.794;2023-01-28T09:55:16;101854.78;;;2.81;100.00
8627;BME280;4351;51.422;6.794;2023-01-28T09:57:49;101856.69;;;2.70;100.00
8627;BME280;4351;51.422;6.794;2023-01-28T10:00:22;101880.75;;;2.59;100.00
8627;BME280;4351;51.422;6.794;2023-01-28T10:03:23;101892.50;;;2.31;100.00
8627;BME280;4351;51.422;6.794;2023-01-28T10:06:02;101901.47;;;2.24;100.00
8627;BME280;4351;51.422;6.794;2023-01-28T10:08:55;101905.81;;;2.31;100.00
8627;BME280;4351;51.422;6.794;2023-01-28T10:11:35;101903.13;;;2.33;100.00
8627;BME280;4351;51.422;6.794;2023-01-28T10:14:09;101910.16;;;2.46;100.00
8627;BME280;4351;51.422;6.794;2023-01-28T10:16:43;101907.53;;;2.43;100.00
8627;BME280;4351;51.422;6.794;2023-01-28T10:19:15;101904.94;;;2.32;100.00
8627;BME280;4351;51.422;6.794;2023-01-28T10:21:49;101914.88;;;2.03;100.00
8627;BME280;4351;51.422;6.794;2023-01-28T10:24:25;101894.25;;;2.38;100.00
8627;BME280;4351;51.422;6.794;2023-01-28T10:26:56;101885.22;;;2.58;100.00
8627;BME280;4351;51.422;6.794;2023-01-28T10:29:30;101878.94;;;2.62;100.00
8627;BME280;4351;51.422;6.794;2023-01-28T10:32:15;101895.97;;;2.43;100.00
8627;BME280;4351;51.422;6.794;2023-01-28T10:34:44;101893.16;;;2.63;100.00
8627;BME280;4351;51.422;6.794;2023-01-28T10:37:14;101895.78;;;2.68;100.00
8627;BME280;4351;51.422;6.794;2023-01-28T10:39:43;101871.53;;;2.96;100.00
8627;BME280;4351;51.422;6.794;2023-01-28T10:42:21;101899.97;;;2.95;100.00
8627;BME280;4351;51.422;6.794;2023-01-28T10:44:56;101900.91;;;2.88;100.00
8627;BME280;4351;51.422;6.794;2023-01-28T10:47:32;101857.72;;;3.37;100.00
8627;BME280;4351;51.422;6.794;2023-01-28T10:50:04;101877.25;;;3.42;100.00
8627;BME280;4351;51.422;6.794;2023-01-28T10:52:32;101863.63;;;3.64;100.00
8627;BME280;4351;51.422;6.794;2023-01-28T10:55:05;101871.47;;;3.76;100.00
8627;BME280;4351;51.422;6.794;2023-01-28T10:57:34;101822.66;;;4.77;100.00
8627;BME280;4351;51.422;6.794;2023-01-28T11:00:22;101890.34;;;4.24;100.00
8627;BME280;4351;51.422;6.794;2023-01-28T11:02:53;101915.28;;;4.24;100.00
8627;BME280;4351;51.422;6.794;2023-01-28T11:05:24;101938.91;;;3.89;100.00
8627;BME280;4351;51.422;6.794;2023-01-28T11:08:08;101971.38;;;3.55;100.00
8627;BME280;4351;51.422;6.794;2023-01-28T11:10:40;101982.25;;;3.35;100.00
8627;BME280;4351;51.422;6.794;2023-01-28T11:13:15;101984.13;;;3.26;100.00
8627;BME280;4351;51.422;6.794;2023-01-28T11:15:48;102023.78;;;2.58;100.00
8627;BME280;4351;51.422;6.794;2023-01-28T11:18:21;102001.41;;;2.83;100.00
8627;BME280;4351;51.422;6.794;2023-01-28T11:20:53;101995.28;;;2.70;100.00
8627;BME280;4351;51.422;6.794;2023-01-28T11:23:25;101979.13;;;2.89;100.00
8627;BME280;4351;51.422;6.794;2023-01-28T11:26:03;101977.53;;;2.62;100.00
8627;BME280;4351;51.422;6.794;2023-01-28T11:28:34;101977.56;;;2.59;100.00
8627;BME280;4351;51.422;6.794;2023-01-28T11:31:07;101970.41;;;2.69;100.00
8627;BME280;4351;51.422;6.794;2023-01-28T11:33:43;101962.41;;;2.69;100.00
8627;BME280;4351;51.422;6.794;2023-01-28T11:36:13;101952.59;;;2.73;100.00
8627;BME280;4351;51.422;6.794;2023-01-28T11:38:50;101951.50;;;2.97;100.00
8627;BME280;4351;51.422;6.794;2023-01-28T11:41:25;101976.66;;;2.62;100.00
8627;BME280;4351;51.422;6.794;2023-01-28T11:43:54;101955.78;;;3.16;100.00
8627;BME280;4351;51.422;6.794;2023-01-28T11:46:42;101976.72;;;2.52;100.00
8627;BME280;4351;51.422;6.794;2023-01-28T11:49:20;101985.66;;;2.44;100.00
8627;BME280;4351;51.422;6.794;2023-01-28T11:51:56;101985.75;;;2.29;100.00
8627;BME280;4351;51.422;6.794;2023-01-28T11:54:38;101966.94;;;2.56;100.00
8627;BME280;4351;51.422;6.794;2023-01-28T11:57:20;101967.84;;;2.52;100.00
8627;BME280;4351;51.422;6.794;2023-01-28T12:00:08;101959.91;;;2.47;100.00
8627;BME280;4351;51.422;6.794;2023-01-28T12:02:48;101952.75;;;2.54;100.00
8627;BME280;4351;51.422;6.794;2023-01-28T12:05:31;101945.75;;;2.39;100.00
8627;BME280;4351;51.422;6.794;2023-01-28T12:08:07;101927.94;;;2.46;100.00
8627;BME280;4351;51.422;6.794;2023-01-28T12:10:41;101908.28;;;2.59;100.00
8627;BME280;4351;51.422;6.794;2023-01-28T12:13:28;101916.41;;;2.45;100.00
8627;BME280;4351;51.422;6.794;2023-01-28T12:16:13;101897.59;;;2.62;100.00
8627;BME280;4351;51.422;6.794;2023-01-28T12:18:59;101906.47;;;2.61;100.00
8627;BME280;4351;51.422;6.794;2023-01-28T12:21:40;101933.41;;;2.24;100.00
8627;BME280;4351;51.422;6.794;2023-01-28T12:24:30;101930.09;;;1.76;100.00
8627;BME280;4351;51.422;6.794;2023-01-28T12:27:22;101903.38;;;1.98;100.00
8627;BME280;4351;51.422;6.794;2023-01-28T12:30:00;101888.00;;;2.41;100.00
8627;BME280;4351;51.422;6.794;2023-01-28T12:32:40;101879.66;;;2.79;100.00
8627;BME280;4351;51.422;6.794;2023-01-28T12:35:41;101854.63;;;2.97;100.00
8627;BME280;4351;51.422;6.794;2023-01-28T12:38:23;101869.91;;;2.79;100.00
8627;BME280;4351;51.422;6.794;2023-01-28T12:40:58;101869.00;;;2.82;100.00
8627;BME280;4351;51.422;6.794;2023-01-28T12:43:42;101847.09;;;2.47;100.00
8627;BME280;4351;51.422;6.794;2023-01-28T12:46:17;101836.47;;;2.45;100.00
8627;BME280;4351;51.422;6.794;2023-01-28T12:48:52;101818.25;;;2.91;100.00
8627;BME280;4351;51.422;6.794;2023-01-28T12:51:26;101828.47;;;2.44;100.00
8627;BME280;4351;51.422;6.794;2023-01-28T12:54:00;101831.19;;;2.39;100.00
8627;BME280;4351;51.422;6.794;2023-01-28T12:56:33;101849.94;;;2.28;100.00
8627;BME280;4351;51.422;6.794;2023-01-28T12:59:05;101832.91;;;2.45;100.00
8627;BME280;4351;51.422;6.794;2023-01-28T13:01:41;101821.22;;;2.61;100.00
8627;BME280;4351;51.422;6.794;2023-01-28T13:04:16;101841.59;;;2.67;100.00
8627;BME280;4351;51.422;6.794;2023-01-28T13:06:47;101857.56;;;2.69;100.00
8627;BME280;4351;51.422;6.794;2023-01-28T13:09:21;101854.84;;;2.75;100.00
8627;BME280;4351;51.422;6.794;2023-01-28T13:11:52;101859.31;;;2.73;100.00
8627;BME280;4351;51.422;6.794;2023-01-28T13:14:23;101865.38;;;2.87;100.00
8627;BME280;4351;51.422;6.794;2023-01-28T13:16:52;101880.69;;;2.67;100.00
8627;BME280;4351;51.422;6.794;2023-01-28T13:19:23;101866.50;;;2.64;100.00
8627;BME280;4351;51.422;6.794;2023-01-28T13:21:51;101869.09;;;2.71;100.00
8627;BME280;4351;51.422;6.794;2023-01-28T13:24:29;101881.66;;;2.58;100.00
8627;BME280;4351;51.422;6.794;2023-01-28T13:27:10;101870.94;;;2.62;100.00
8627;BME280;4351;51.422;6.794;2023-01-28T13:29:39;101887.13;;;2.40;100.00
8627;BME280;4351;51.422;6.794;2023-01-28T13:32:26;101885.44;;;2.30;100.00
8627;BME280;4351;51.422;6.794;2023-01-28T13:34:57;101869.25;;;2.53;100.00
8627;BME280;4351;51.422;6.794;2023-01-28T13:37:30;101863.66;;;2.82;100.00
8627;BME280;4351;51.422;6.794;2023-01-28T13:40:06;101874.41;;;2.74;100.00
8627;BME280;4351;51.422;6.794;2023-01-28T13:42:36;101876.28;;;2.62;100.00
8627;BME280;4351;51.422;6.794;2023-01-28T13:45:21;101865.63;;;2.62;100.00